Mst-radomir — OMCU — position and weather

sailwx.info

Track history (hours):
 
Tides and Currents Weather Stations Pressure Air Temp Water Temp Dewpoint Dewpoint Depression Visibility Wind Speed Wind Dir Waves Ship Positions

Mst-radomir

Last reported at 2017-Dec-11 17:00 UTC. Time now 2017-Dec-13 01:46 UTC.
Position N 43°60' E 022°55'.

Length 187 m; draft 2.3 m.

Type: Cargo ship. MMSI: 267010006.

Date/timePositionNaut miles runAvg speedWind from/ knotsBaromVisibWave heightAir tempDewpointWater temp
2017-Dec-11 17:00N 43°60' E 022°55'1 2.9
2017-Dec-11 16:30N 43°59' E 022°53'1 3.0
2017-Dec-11 16:00N 43°58' E 022°53'2 3.5
2017-Dec-11 15:30N 43°56' E 022°52'2 3.2
2017-Dec-11 14:58N 43°55' E 022°51'1 3.0
2017-Dec-11 14:30N 43°53' E 022°51'2 3.2
2017-Dec-11 14:00N 43°52' E 022°51'2 3.2
2017-Dec-11 13:30N 43°50' E 022°52'2 3.5
2017-Dec-11 12:59N 43°50' E 022°54'2 3.3
2017-Dec-11 12:30N 43°49' E 022°56'2 3.1
2017-Dec-11 11:52N 43°49' E 022°59'2 3.2
2017-Dec-11 11:19N 43°48' E 023°01'2 2.7
2017-Dec-11 10:31N 43°48' E 023°04'1 3.0
2017-Dec-11 10:04N 43°48' E 023°06'1 3.1
2017-Dec-11 09:52N 43°48' E 023°07'1 2.9
2017-Dec-11 09:30N 43°48' E 023°08'1 2.8
2017-Dec-11 09:00N 43°49' E 023°10'2 3.1
2017-Dec-11 08:30N 43°50' E 023°12'2 3.2
2017-Dec-11 07:57N 43°50' E 023°15'1 2.9
2017-Dec-11 07:29N 43°51' E 023°16'2 3.2
2017-Dec-11 07:00N 43°51' E 023°18'2 2.9
2017-Dec-11 06:28N 43°51' E 023°20'1 3.1
2017-Dec-11 06:00N 43°51' E 023°22'2 3.2
2017-Dec-11 05:29N 43°51' E 023°25'  
2017-Dec-03 12:15N 44°18' E 028°03'2 3.8
2017-Dec-03 11:43N 44°17' E 028°05'1 5.3
2017-Dec-03 11:30N 44°16' E 028°06'3 5.4
2017-Dec-03 11:00N 44°16' E 028°10'3 5.5
2017-Dec-03 10:30N 44°15' E 028°14'3 5.5
2017-Dec-03 10:00N 44°15' E 028°18'3 5.4
2017-Dec-03 09:30N 44°14' E 028°21'3 5.5
2017-Dec-03 09:00N 44°12' E 028°23'3 5.4
2017-Dec-03 08:25N 44°09' E 028°26'4 5.2
2017-Dec-03 07:41N 44°06' E 028°28'2 5.5
2017-Dec-03 07:17N 44°06' E 028°31'2 5.3
2017-Dec-03 07:00N 44°06' E 028°34'3 5.2
2017-Dec-03 06:30N 44°06' E 028°37'0 0.4
2017-Dec-03 06:00N 44°06' E 028°37'1 1.8
2017-Dec-03 05:30N 44°06' E 028°39'1 1.9
2017-Dec-03 05:00N 44°07' E 028°39'0 0.1
2017-Dec-03 04:30N 44°07' E 028°39'0 0.2
2017-Dec-03 04:00N 44°07' E 028°39'0 0.0
2017-Dec-03 03:29N 44°07' E 028°39'0 0.0
2017-Dec-03 03:00N 44°07' E 028°39'0 0.0
2017-Dec-03 02:30N 44°07' E 028°39'0 0.0
2017-Dec-03 02:00N 44°07' E 028°39'0 0.0
2017-Dec-03 01:30N 44°07' E 028°39'0 0.0
2017-Dec-03 01:00N 44°07' E 028°39'0 0.0
2017-Dec-03 00:30N 44°07' E 028°39'0 0.0
2017-Dec-03 00:00N 44°07' E 028°39'0 0.0
2017-Dec-02 23:30N 44°07' E 028°39'0 0.0
2017-Dec-02 23:00N 44°07' E 028°39'0 0.0
2017-Dec-02 22:30N 44°07' E 028°39'0 0.0
2017-Dec-02 22:00N 44°07' E 028°39'0 0.0
2017-Dec-02 21:30N 44°07' E 028°39'0 0.0
2017-Dec-02 21:00N 44°07' E 028°39'0 0.0
2017-Dec-02 20:30N 44°07' E 028°39'0 0.0
2017-Dec-02 20:00N 44°07' E 028°39'0 0.0
2017-Dec-02 19:30N 44°07' E 028°39'0 0.0
2017-Dec-02 19:00N 44°07' E 028°39'0 0.0
2017-Dec-02 18:30N 44°07' E 028°39'0 0.0
2017-Dec-02 18:01N 44°07' E 028°39'0 0.0
2017-Dec-02 17:30N 44°07' E 028°39'0 0.0
2017-Dec-02 17:00N 44°07' E 028°39'0 0.0
2017-Dec-02 16:30N 44°07' E 028°39'0 0.0
2017-Dec-02 16:00N 44°07' E 028°39'0 0.0
2017-Dec-02 15:30N 44°07' E 028°39'0 0.0
2017-Dec-02 15:00N 44°07' E 028°39'  
Track history (hours):
 
Tides and Currents Weather Stations Pressure Air Temp Water Temp Dewpoint Dewpoint Depression Visibility Wind Speed Wind Dir Waves Ship Positions

Mst-radomir

Last reported at 2017-Dec-11 17:00 UTC. Time now 2017-Dec-13 01:46 UTC.
Position N 43°60' E 022°55'.

Length 187 m; draft 2.3 m.

Type: Cargo ship. MMSI: 267010006.

Date/timePositionNaut miles runAvg speedWind from/ knotsBaromVisibWave heightAir tempDewpointWater temp
2017-Dec-11 17:00N 43°60' E 022°55'1 2.9
2017-Dec-11 16:30N 43°59' E 022°53'1 3.0
2017-Dec-11 16:00N 43°58' E 022°53'2 3.5
2017-Dec-11 15:30N 43°56' E 022°52'2 3.2
2017-Dec-11 14:58N 43°55' E 022°51'1 3.0
2017-Dec-11 14:30N 43°53' E 022°51'2 3.2
2017-Dec-11 14:00N 43°52' E 022°51'2 3.2
2017-Dec-11 13:30N 43°50' E 022°52'2 3.5
2017-Dec-11 12:59N 43°50' E 022°54'2 3.3
2017-Dec-11 12:30N 43°49' E 022°56'2 3.1
2017-Dec-11 11:52N 43°49' E 022°59'2 3.2
2017-Dec-11 11:19N 43°48' E 023°01'2 2.7
2017-Dec-11 10:31N 43°48' E 023°04'1 3.0
2017-Dec-11 10:04N 43°48' E 023°06'1 3.1
2017-Dec-11 09:52N 43°48' E 023°07'1 2.9
2017-Dec-11 09:30N 43°48' E 023°08'1 2.8
2017-Dec-11 09:00N 43°49' E 023°10'2 3.1
2017-Dec-11 08:30N 43°50' E 023°12'2 3.2
2017-Dec-11 07:57N 43°50' E 023°15'1 2.9
2017-Dec-11 07:29N 43°51' E 023°16'2 3.2
2017-Dec-11 07:00N 43°51' E 023°18'2 2.9
2017-Dec-11 06:28N 43°51' E 023°20'1 3.1
2017-Dec-11 06:00N 43°51' E 023°22'2 3.2
2017-Dec-11 05:29N 43°51' E 023°25'  
2017-Dec-03 12:15N 44°18' E 028°03'2 3.8
2017-Dec-03 11:43N 44°17' E 028°05'1 5.3
2017-Dec-03 11:30N 44°16' E 028°06'3 5.4
2017-Dec-03 11:00N 44°16' E 028°10'3 5.5
2017-Dec-03 10:30N 44°15' E 028°14'3 5.5
2017-Dec-03 10:00N 44°15' E 028°18'3 5.4
2017-Dec-03 09:30N 44°14' E 028°21'3 5.5
2017-Dec-03 09:00N 44°12' E 028°23'3 5.4
2017-Dec-03 08:25N 44°09' E 028°26'4 5.2
2017-Dec-03 07:41N 44°06' E 028°28'2 5.5
2017-Dec-03 07:17N 44°06' E 028°31'2 5.3
2017-Dec-03 07:00N 44°06' E 028°34'3 5.2
2017-Dec-03 06:30N 44°06' E 028°37'0 0.4
2017-Dec-03 06:00N 44°06' E 028°37'1 1.8
2017-Dec-03 05:30N 44°06' E 028°39'1 1.9
2017-Dec-03 05:00N 44°07' E 028°39'0 0.1
2017-Dec-03 04:30N 44°07' E 028°39'0 0.2
2017-Dec-03 04:00N 44°07' E 028°39'0 0.0
2017-Dec-03 03:29N 44°07' E 028°39'0 0.0
2017-Dec-03 03:00N 44°07' E 028°39'0 0.0
2017-Dec-03 02:30N 44°07' E 028°39'0 0.0
2017-Dec-03 02:00N 44°07' E 028°39'0 0.0
2017-Dec-03 01:30N 44°07' E 028°39'0 0.0
2017-Dec-03 01:00N 44°07' E 028°39'0 0.0
2017-Dec-03 00:30N 44°07' E 028°39'0 0.0
2017-Dec-03 00:00N 44°07' E 028°39'0 0.0
2017-Dec-02 23:30N 44°07' E 028°39'0 0.0
2017-Dec-02 23:00N 44°07' E 028°39'0 0.0
2017-Dec-02 22:30N 44°07' E 028°39'0 0.0
2017-Dec-02 22:00N 44°07' E 028°39'0 0.0
2017-Dec-02 21:30N 44°07' E 028°39'0 0.0
2017-Dec-02 21:00N 44°07' E 028°39'0 0.0
2017-Dec-02 20:30N 44°07' E 028°39'0 0.0
2017-Dec-02 20:00N 44°07' E 028°39'0 0.0
2017-Dec-02 19:30N 44°07' E 028°39'0 0.0
2017-Dec-02 19:00N 44°07' E 028°39'0 0.0
2017-Dec-02 18:30N 44°07' E 028°39'0 0.0
2017-Dec-02 18:01N 44°07' E 028°39'0 0.0
2017-Dec-02 17:30N 44°07' E 028°39'0 0.0
2017-Dec-02 17:00N 44°07' E 028°39'0 0.0
2017-Dec-02 16:30N 44°07' E 028°39'0 0.0
2017-Dec-02 16:00N 44°07' E 028°39'0 0.0
2017-Dec-02 15:30N 44°07' E 028°39'0 0.0
2017-Dec-02 15:00N 44°07' E 028°39'  

Dump ship's entire track history